Nearby METAR Reports

 

KAVP - Avoca/Wilkes B., Pennsylvania, USA
Distance from station: N 16mi, 25km
Updated: 02/22/2019 10:54am
Mostly cloudy
Mostly cloudy
 Wind from N
Wind: N 8 mph , 13 km/h, Gust: 17 mph , 28 km/h
Temperature: 36°F , 2°C
Wind Chill: 30°F , -1°C
Dew Point: 21°F , -6°C
Humidity: 56%
Barometer: 30.38 inHg , 1028.8 hPa
Clouds: Mostly cloudy
Visibility: 8 miles , 13 km
Cloud details: Mostly cloudy 3500 ft
2019/02/22 15:54 KAVP 221554Z 01007G15KT 340V040 8SM BKN035 02/M06 A3038 RMK AO2 SLP294 T00221061
KMPO - Mt. Pocono, Pennsylvania, USA
Distance from station: E 20mi, 33km
Updated: 02/22/2019 11:17am
Partly cloudy
Partly cloudy
 Wind from NW
Wind: NW 14 mph , 22 km/h
Temperature: 30°F , -1°C
Wind Chill: 19°F , -7°C
Dew Point: 21°F , -6°C
Humidity: 69%
Barometer: 30.32 inHg , 1026.8 hPa
Clouds: Partly cloudy
Visibility: 10 miles , 16 km
Cloud details: Partly cloudy 2800 ft
2019/02/22 16:17 KMPO 221617Z AUTO 31012KT 10SM SCT028 M01/M06 A3032 RMK AO2 T10061061
 
KABE - Allentown, Pennsylvania, USA
Distance from station: SSE 36mi, 58km
Updated: 02/22/2019 10:51am
Clear
Clear
 Wind from NNW
Wind: NNW 10 mph , 17 km/h
Temperature: 43°F , 6°C
Wind Chill: 37°F , 3°C
Dew Point: 23°F , -5°C
Humidity: 46%
Barometer: 30.39 inHg , 1029.1 hPa
Clouds: Clear
Visibility: 10 miles , 16 km
2019/02/22 15:51 KABE 221551Z 34009KT 10SM CLR 06/M05 A3039 RMK AO2 SLP295 T00611050
KXLL - Allentown Queen, Pennsylvania, USA
Distance from station: SSE 41mi, 65km
Updated: 02/22/2019 11:35am

 
2019/02/22 16:35 KXLL 221635Z AUTO RMK AO2 PWINO PNO TSNO